sensor_id;sensor_type;location;lat;lon;timestamp;P1;durP1;ratioP1;P2;durP2;ratioP2
19507;SDS011;40157;42.566;27.526;2023-02-01T00:01:53;15.23;;;7.63;;
19507;SDS011;40157;42.566;27.526;2023-02-01T00:03:54;18.20;;;8.17;;
19507;SDS011;40157;42.566;27.526;2023-02-01T00:05:55;16.43;;;7.70;;
19507;SDS011;40157;42.566;27.526;2023-02-01T00:07:57;17.30;;;7.80;;
19507;SDS011;40157;42.566;27.526;2023-02-01T00:09:57;13.73;;;7.17;;
19507;SDS011;40157;42.566;27.526;2023-02-01T00:11:58;19.67;;;8.23;;
19507;SDS011;40157;42.566;27.526;2023-02-01T00:14:01;18.17;;;8.23;;
19507;SDS011;40157;42.566;27.526;2023-02-01T00:16:12;19.60;;;9.27;;
19507;SDS011;40157;42.566;27.526;2023-02-01T00:18:14;15.90;;;7.20;;
19507;SDS011;40157;42.566;27.526;2023-02-01T00:20:14;15.27;;;6.23;;
19507;SDS011;40157;42.566;27.526;2023-02-01T00:22:15;16.53;;;6.73;;
19507;SDS011;40157;42.566;27.526;2023-02-01T00:24:15;19.53;;;6.30;;
19507;SDS011;40157;42.566;27.526;2023-02-01T00:26:17;15.17;;;6.80;;
19507;SDS011;40157;42.566;27.526;2023-02-01T00:28:19;13.73;;;6.40;;
19507;SDS011;40157;42.566;27.526;2023-02-01T00:30:20;11.97;;;5.80;;
19507;SDS011;40157;42.566;27.526;2023-02-01T00:32:20;15.10;;;6.53;;
19507;SDS011;40157;42.566;27.526;2023-02-01T00:34:20;15.50;;;7.10;;
19507;SDS011;40157;42.566;27.526;2023-02-01T00:36:21;15.30;;;7.33;;
19507;SDS011;40157;42.566;27.526;2023-02-01T00:38:21;14.17;;;7.53;;
19507;SDS011;40157;42.566;27.526;2023-02-01T00:40:22;18.43;;;7.67;;
19507;SDS011;40157;42.566;27.526;2023-02-01T00:42:22;16.17;;;7.03;;
19507;SDS011;40157;42.566;27.526;2023-02-01T00:44:23;15.73;;;6.40;;
19507;SDS011;40157;42.566;27.526;2023-02-01T00:46:23;14.93;;;7.10;;
19507;SDS011;40157;42.566;27.526;2023-02-01T00:48:24;14.20;;;6.43;;
19507;SDS011;40157;42.566;27.526;2023-02-01T00:50:25;14.17;;;7.30;;
19507;SDS011;40157;42.566;27.526;2023-02-01T00:52:25;18.20;;;8.00;;
19507;SDS011;40157;42.566;27.526;2023-02-01T00:54:26;17.03;;;7.97;;
19507;SDS011;40157;42.566;27.526;2023-02-01T00:56:26;19.13;;;9.13;;
19507;SDS011;40157;42.566;27.526;2023-02-01T00:58:29;18.83;;;8.50;;
19507;SDS011;40157;42.566;27.526;2023-02-01T01:00:30;15.43;;;7.53;;
19507;SDS011;40157;42.566;27.526;2023-02-01T01:02:30;12.80;;;6.03;;
19507;SDS011;40157;42.566;27.526;2023-02-01T01:04:31;10.47;;;4.87;;
19507;SDS011;40157;42.566;27.526;2023-02-01T01:06:31;12.67;;;5.30;;
19507;SDS011;40157;42.566;27.526;2023-02-01T01:08:33;11.77;;;5.60;;
19507;SDS011;40157;42.566;27.526;2023-02-01T01:10:33;9.60;;;5.33;;
19507;SDS011;40157;42.566;27.526;2023-02-01T01:12:34;14.50;;;5.63;;
19507;SDS011;40157;42.566;27.526;2023-02-01T01:14:35;11.73;;;4.97;;
19507;SDS011;40157;42.566;27.526;2023-02-01T01:16:35;12.00;;;5.23;;
19507;SDS011;40157;42.566;27.526;2023-02-01T01:18:36;12.63;;;5.77;;
19507;SDS011;40157;42.566;27.526;2023-02-01T01:20:38;12.50;;;4.87;;
19507;SDS011;40157;42.566;27.526;2023-02-01T01:22:40;9.60;;;5.23;;
19507;SDS011;40157;42.566;27.526;2023-02-01T01:24:40;12.13;;;5.63;;
19507;SDS011;40157;42.566;27.526;2023-02-01T01:26:41;12.53;;;5.27;;
19507;SDS011;40157;42.566;27.526;2023-02-01T01:28:41;10.90;;;5.60;;
19507;SDS011;40157;42.566;27.526;2023-02-01T01:30:42;11.13;;;5.47;;
19507;SDS011;40157;42.566;27.526;2023-02-01T01:32:43;14.40;;;5.43;;
19507;SDS011;40157;42.566;27.526;2023-02-01T01:34:43;14.90;;;5.43;;
19507;SDS011;40157;42.566;27.526;2023-02-01T01:36:44;13.60;;;5.77;;
19507;SDS011;40157;42.566;27.526;2023-02-01T01:38:44;12.70;;;5.47;;
19507;SDS011;40157;42.566;27.526;2023-02-01T01:40:45;12.97;;;6.00;;
19507;SDS011;40157;42.566;27.526;2023-02-01T01:42:47;13.97;;;5.70;;
19507;SDS011;40157;42.566;27.526;2023-02-01T01:45:02;13.00;;;5.67;;
19507;SDS011;40157;42.566;27.526;2023-02-01T01:47:08;12.40;;;6.17;;
19507;SDS011;40157;42.566;27.526;2023-02-01T01:49:14;11.53;;;5.67;;
19507;SDS011;40157;42.566;27.526;2023-02-01T01:51:20;11.50;;;6.07;;
19507;SDS011;40157;42.566;27.526;2023-02-01T01:53:28;12.47;;;6.20;;
19507;SDS011;40157;42.566;27.526;2023-02-01T01:55:35;13.17;;;5.37;;
19507;SDS011;40157;42.566;27.526;2023-02-01T01:57:40;13.00;;;6.60;;
19507;SDS011;40157;42.566;27.526;2023-02-01T01:59:46;12.47;;;5.90;;
19507;SDS011;40157;42.566;27.526;2023-02-01T02:01:50;15.77;;;6.40;;
19507;SDS011;40157;42.566;27.526;2023-02-01T02:03:52;11.97;;;6.00;;
19507;SDS011;40157;42.566;27.526;2023-02-01T02:05:54;15.70;;;6.53;;
19507;SDS011;40157;42.566;27.526;2023-02-01T02:07:58;13.10;;;6.33;;
19507;SDS011;40157;42.566;27.526;2023-02-01T02:10:03;16.17;;;6.27;;
19507;SDS011;40157;42.566;27.526;2023-02-01T02:12:06;14.67;;;6.10;;
19507;SDS011;40157;42.566;27.526;2023-02-01T02:14:07;10.90;;;5.97;;
19507;SDS011;40157;42.566;27.526;2023-02-01T02:25:15;12.87;;;5.90;;
19507;SDS011;40157;42.566;27.526;2023-02-01T02:30:02;11.20;;;5.13;;
19507;SDS011;40157;42.566;27.526;2023-02-01T02:32:26;14.13;;;6.17;;
19507;SDS011;40157;42.566;27.526;2023-02-01T02:34:54;10.73;;;5.53;;
19507;SDS011;40157;42.566;27.526;2023-02-01T02:41:37;12.43;;;5.77;;
19507;SDS011;40157;42.566;27.526;2023-02-01T02:44:19;12.57;;;5.67;;
19507;SDS011;40157;42.566;27.526;2023-02-01T02:46:47;12.30;;;5.93;;
19507;SDS011;40157;42.566;27.526;2023-02-01T02:49:15;15.03;;;6.27;;
19507;SDS011;40157;42.566;27.526;2023-02-01T02:51:27;13.37;;;6.90;;
19507;SDS011;40157;42.566;27.526;2023-02-01T02:56:30;13.83;;;6.03;;
19507;SDS011;40157;42.566;27.526;2023-02-01T02:58:50;11.53;;;6.07;;
19507;SDS011;40157;42.566;27.526;2023-02-01T03:01:10;14.63;;;6.37;;
19507;SDS011;40157;42.566;27.526;2023-02-01T03:03:29;17.47;;;7.07;;
19507;SDS011;40157;42.566;27.526;2023-02-01T03:05:48;12.90;;;5.73;;
19507;SDS011;40157;42.566;27.526;2023-02-01T03:07:55;11.20;;;5.70;;
19507;SDS011;40157;42.566;27.526;2023-02-01T03:12:48;14.87;;;5.83;;
19507;SDS011;40157;42.566;27.526;2023-02-01T03:14:57;15.87;;;7.13;;
19507;SDS011;40157;42.566;27.526;2023-02-01T03:17:10;11.13;;;5.87;;
19507;SDS011;40157;42.566;27.526;2023-02-01T03:19:25;14.07;;;6.40;;
19507;SDS011;40157;42.566;27.526;2023-02-01T03:21:40;10.97;;;5.93;;
19507;SDS011;40157;42.566;27.526;2023-02-01T03:23:43;14.47;;;5.50;;
19507;SDS011;40157;42.566;27.526;2023-02-01T03:25:47;11.07;;;4.60;;
19507;SDS011;40157;42.566;27.526;2023-02-01T03:27:59;10.50;;;4.47;;
19507;SDS011;40157;42.566;27.526;2023-02-01T03:30:25;14.70;;;4.80;;
19507;SDS011;40157;42.566;27.526;2023-02-01T03:32:28;10.43;;;5.13;;
19507;SDS011;40157;42.566;27.526;2023-02-01T03:34:49;8.60;;;4.40;;
19507;SDS011;40157;42.566;27.526;2023-02-01T03:36:52;12.53;;;4.97;;
19507;SDS011;40157;42.566;27.526;2023-02-01T03:39:02;12.40;;;5.23;;
19507;SDS011;40157;42.566;27.526;2023-02-01T03:43:14;9.10;;;4.50;;
19507;SDS011;40157;42.566;27.526;2023-02-01T03:45:28;9.97;;;5.30;;
19507;SDS011;40157;42.566;27.526;2023-02-01T03:47:35;11.00;;;5.33;;
19507;SDS011;40157;42.566;27.526;2023-02-01T03:49:41;10.70;;;5.53;;
19507;SDS011;40157;42.566;27.526;2023-02-01T03:51:44;10.43;;;5.30;;
19507;SDS011;40157;42.566;27.526;2023-02-01T03:53:44;13.27;;;5.57;;
19507;SDS011;40157;42.566;27.526;2023-02-01T03:55:49;10.17;;;5.00;;
19507;SDS011;40157;42.566;27.526;2023-02-01T03:57:58;9.20;;;5.13;;
19507;SDS011;40157;42.566;27.526;2023-02-01T04:00:08;9.63;;;4.83;;
19507;SDS011;40157;42.566;27.526;2023-02-01T04:02:15;12.27;;;5.10;;
19507;SDS011;40157;42.566;27.526;2023-02-01T04:04:16;9.87;;;5.43;;
19507;SDS011;40157;42.566;27.526;2023-02-01T04:06:19;12.60;;;4.57;;
19507;SDS011;40157;42.566;27.526;2023-02-01T04:08:20;8.83;;;4.60;;
19507;SDS011;40157;42.566;27.526;2023-02-01T04:10:21;11.17;;;5.00;;
19507;SDS011;40157;42.566;27.526;2023-02-01T04:12:21;8.17;;;4.13;;
19507;SDS011;40157;42.566;27.526;2023-02-01T04:14:22;9.90;;;4.80;;
19507;SDS011;40157;42.566;27.526;2023-02-01T04:16:22;9.43;;;4.73;;
19507;SDS011;40157;42.566;27.526;2023-02-01T04:18:23;8.33;;;4.60;;
19507;SDS011;40157;42.566;27.526;2023-02-01T04:20:23;9.83;;;4.70;;
19507;SDS011;40157;42.566;27.526;2023-02-01T04:22:24;9.87;;;4.70;;
19507;SDS011;40157;42.566;27.526;2023-02-01T04:24:24;11.10;;;4.60;;
19507;SDS011;40157;42.566;27.526;2023-02-01T04:26:25;7.07;;;4.03;;
19507;SDS011;40157;42.566;27.526;2023-02-01T04:28:25;10.53;;;4.70;;
19507;SDS011;40157;42.566;27.526;2023-02-01T04:30:26;8.67;;;4.63;;
19507;SDS011;40157;42.566;27.526;2023-02-01T04:32:26;9.47;;;4.23;;
19507;SDS011;40157;42.566;27.526;2023-02-01T04:34:27;7.90;;;4.43;;
19507;SDS011;40157;42.566;27.526;2023-02-01T04:36:27;7.43;;;4.00;;
19507;SDS011;40157;42.566;27.526;2023-02-01T04:38:28;10.57;;;3.93;;
19507;SDS011;40157;42.566;27.526;2023-02-01T04:40:29;9.90;;;4.47;;
19507;SDS011;40157;42.566;27.526;2023-02-01T04:42:29;7.17;;;4.00;;
19507;SDS011;40157;42.566;27.526;2023-02-01T04:44:30;8.90;;;4.53;;
19507;SDS011;40157;42.566;27.526;2023-02-01T04:46:30;11.10;;;4.50;;
19507;SDS011;40157;42.566;27.526;2023-02-01T04:48:31;8.27;;;4.30;;
19507;SDS011;40157;42.566;27.526;2023-02-01T04:50:31;9.00;;;4.47;;
19507;SDS011;40157;42.566;27.526;2023-02-01T04:52:32;9.23;;;3.93;;
19507;SDS011;40157;42.566;27.526;2023-02-01T04:54:32;10.03;;;4.57;;
19507;SDS011;40157;42.566;27.526;2023-02-01T04:56:33;6.30;;;4.10;;
19507;SDS011;40157;42.566;27.526;2023-02-01T04:58:37;8.90;;;4.53;;
19507;SDS011;40157;42.566;27.526;2023-02-01T05:00:37;9.83;;;4.30;;
19507;SDS011;40157;42.566;27.526;2023-02-01T05:02:38;9.63;;;3.97;;
19507;SDS011;40157;42.566;27.526;2023-02-01T05:04:38;9.37;;;4.67;;
19507;SDS011;40157;42.566;27.526;2023-02-01T05:06:39;13.00;;;4.80;;
19507;SDS011;40157;42.566;27.526;2023-02-01T05:08:39;7.60;;;4.17;;
19507;SDS011;40157;42.566;27.526;2023-02-01T05:10:40;9.17;;;4.40;;
19507;SDS011;40157;42.566;27.526;2023-02-01T05:12:42;10.57;;;4.13;;
19507;SDS011;40157;42.566;27.526;2023-02-01T05:15:02;8.93;;;4.10;;
19507;SDS011;40157;42.566;27.526;2023-02-01T05:17:02;10.10;;;4.93;;
19507;SDS011;40157;42.566;27.526;2023-02-01T05:19:03;7.23;;;4.10;;
19507;SDS011;40157;42.566;27.526;2023-02-01T05:21:03;8.60;;;4.63;;
19507;SDS011;40157;42.566;27.526;2023-02-01T05:23:04;9.03;;;4.23;;
19507;SDS011;40157;42.566;27.526;2023-02-01T05:25:05;8.07;;;4.23;;
19507;SDS011;40157;42.566;27.526;2023-02-01T05:27:06;7.70;;;4.20;;
19507;SDS011;40157;42.566;27.526;2023-02-01T05:29:07;7.20;;;4.13;;
19507;SDS011;40157;42.566;27.526;2023-02-01T05:31:09;8.97;;;4.20;;
19507;SDS011;40157;42.566;27.526;2023-02-01T05:33:10;7.37;;;4.20;;
19507;SDS011;40157;42.566;27.526;2023-02-01T05:35:11;8.60;;;3.80;;
19507;SDS011;40157;42.566;27.526;2023-02-01T05:37:11;6.53;;;3.70;;
19507;SDS011;40157;42.566;27.526;2023-02-01T05:39:11;8.83;;;4.40;;
19507;SDS011;40157;42.566;27.526;2023-02-01T05:41:12;7.57;;;4.30;;
19507;SDS011;40157;42.566;27.526;2023-02-01T05:43:12;6.20;;;3.67;;
19507;SDS011;40157;42.566;27.526;2023-02-01T05:45:13;24.00;;;8.20;;
19507;SDS011;40157;42.566;27.526;2023-02-01T05:47:14;13.63;;;5.90;;
19507;SDS011;40157;42.566;27.526;2023-02-01T05:49:14;8.43;;;4.33;;
19507;SDS011;40157;42.566;27.526;2023-02-01T05:51:14;13.20;;;4.93;;
19507;SDS011;40157;42.566;27.526;2023-02-01T05:53:15;7.90;;;4.03;;
19507;SDS011;40157;42.566;27.526;2023-02-01T05:55:15;7.07;;;4.00;;
19507;SDS011;40157;42.566;27.526;2023-02-01T05:57:16;9.43;;;4.20;;
19507;SDS011;40157;42.566;27.526;2023-02-01T05:59:16;7.57;;;3.70;;
19507;SDS011;40157;42.566;27.526;2023-02-01T06:01:17;7.83;;;4.17;;
19507;SDS011;40157;42.566;27.526;2023-02-01T06:03:17;8.27;;;4.00;;
19507;SDS011;40157;42.566;27.526;2023-02-01T06:05:18;8.23;;;4.77;;
19507;SDS011;40157;42.566;27.526;2023-02-01T06:07:19;9.13;;;4.53;;
19507;SDS011;40157;42.566;27.526;2023-02-01T06:09:19;13.17;;;6.33;;
19507;SDS011;40157;42.566;27.526;2023-02-01T06:11:20;11.40;;;4.73;;
19507;SDS011;40157;42.566;27.526;2023-02-01T06:13:20;9.83;;;4.70;;
19507;SDS011;40157;42.566;27.526;2023-02-01T06:15:21;10.03;;;5.47;;
19507;SDS011;40157;42.566;27.526;2023-02-01T06:17:21;9.10;;;4.47;;
19507;SDS011;40157;42.566;27.526;2023-02-01T06:19:22;8.40;;;4.47;;
19507;SDS011;40157;42.566;27.526;2023-02-01T06:21:23;8.83;;;4.57;;
19507;SDS011;40157;42.566;27.526;2023-02-01T06:23:23;7.70;;;4.40;;
19507;SDS011;40157;42.566;27.526;2023-02-01T06:25:24;7.57;;;4.13;;
19507;SDS011;40157;42.566;27.526;2023-02-01T06:27:24;8.47;;;4.17;;
19507;SDS011;40157;42.566;27.526;2023-02-01T06:29:25;10.30;;;4.07;;
19507;SDS011;40157;42.566;27.526;2023-02-01T06:31:26;7.20;;;3.73;;
19507;SDS011;40157;42.566;27.526;2023-02-01T06:33:27;7.57;;;4.03;;
19507;SDS011;40157;42.566;27.526;2023-02-01T06:35:27;8.70;;;4.30;;
19507;SDS011;40157;42.566;27.526;2023-02-01T06:37:27;6.73;;;4.27;;
19507;SDS011;40157;42.566;27.526;2023-02-01T06:39:29;8.90;;;4.50;;
19507;SDS011;40157;42.566;27.526;2023-02-01T06:41:29;9.70;;;4.80;;
19507;SDS011;40157;42.566;27.526;2023-02-01T06:43:30;11.53;;;4.60;;
19507;SDS011;40157;42.566;27.526;2023-02-01T06:45:34;6.93;;;3.93;;
19507;SDS011;40157;42.566;27.526;2023-02-01T06:47:35;6.20;;;3.97;;
19507;SDS011;40157;42.566;27.526;2023-02-01T06:49:35;9.77;;;4.23;;
19507;SDS011;40157;42.566;27.526;2023-02-01T06:51:35;9.10;;;4.20;;
19507;SDS011;40157;42.566;27.526;2023-02-01T06:53:36;7.33;;;4.10;;
19507;SDS011;40157;42.566;27.526;2023-02-01T06:55:36;17.00;;;5.27;;
19507;SDS011;40157;42.566;27.526;2023-02-01T06:57:37;10.97;;;4.63;;
19507;SDS011;40157;42.566;27.526;2023-02-01T06:59:37;7.93;;;3.90;;
19507;SDS011;40157;42.566;27.526;2023-02-01T07:01:38;8.90;;;4.43;;
19507;SDS011;40157;42.566;27.526;2023-02-01T07:03:38;8.47;;;3.97;;
19507;SDS011;40157;42.566;27.526;2023-02-01T07:05:39;11.73;;;4.90;;
19507;SDS011;40157;42.566;27.526;2023-02-01T07:07:40;7.73;;;4.53;;
19507;SDS011;40157;42.566;27.526;2023-02-01T07:09:40;9.87;;;4.53;;
19507;SDS011;40157;42.566;27.526;2023-02-01T07:11:41;7.37;;;4.30;;
19507;SDS011;40157;42.566;27.526;2023-02-01T07:13:43;8.57;;;3.83;;
19507;SDS011;40157;42.566;27.526;2023-02-01T07:15:44;9.33;;;4.00;;
19507;SDS011;40157;42.566;27.526;2023-02-01T07:17:47;8.23;;;4.20;;
19507;SDS011;40157;42.566;27.526;2023-02-01T07:19:49;6.27;;;3.70;;
19507;SDS011;40157;42.566;27.526;2023-02-01T07:21:49;8.03;;;4.13;;
19507;SDS011;40157;42.566;27.526;2023-02-01T07:23:49;8.50;;;4.30;;
19507;SDS011;40157;42.566;27.526;2023-02-01T07:25:56;9.33;;;4.47;;
19507;SDS011;40157;42.566;27.526;2023-02-01T07:27:58;7.73;;;4.00;;
19507;SDS011;40157;42.566;27.526;2023-02-01T07:29:58;6.10;;;4.10;;
19507;SDS011;40157;42.566;27.526;2023-02-01T07:32:01;9.40;;;4.73;;
19507;SDS011;40157;42.566;27.526;2023-02-01T07:34:02;8.57;;;4.10;;
19507;SDS011;40157;42.566;27.526;2023-02-01T07:36:04;5.97;;;3.60;;
19507;SDS011;40157;42.566;27.526;2023-02-01T07:38:06;6.93;;;3.93;;
19507;SDS011;40157;42.566;27.526;2023-02-01T07:40:06;9.67;;;3.53;;
19507;SDS011;40157;42.566;27.526;2023-02-01T07:42:07;8.13;;;3.50;;
19507;SDS011;40157;42.566;27.526;2023-02-01T07:44:07;6.97;;;3.93;;
19507;SDS011;40157;42.566;27.526;2023-02-01T07:46:09;5.17;;;3.27;;
19507;SDS011;40157;42.566;27.526;2023-02-01T07:48:10;7.50;;;4.13;;
19507;SDS011;40157;42.566;27.526;2023-02-01T07:50:11;7.83;;;3.60;;
19507;SDS011;40157;42.566;27.526;2023-02-01T07:52:11;8.47;;;3.67;;
19507;SDS011;40157;42.566;27.526;2023-02-01T07:54:13;6.23;;;3.20;;
19507;SDS011;40157;42.566;27.526;2023-02-01T07:56:14;4.77;;;3.27;;
19507;SDS011;40157;42.566;27.526;2023-02-01T07:58:16;6.00;;;3.47;;
19507;SDS011;40157;42.566;27.526;2023-02-01T08:00:17;13.37;;;3.30;;
19507;SDS011;40157;42.566;27.526;2023-02-01T08:02:36;8.57;;;3.83;;
19507;SDS011;40157;42.566;27.526;2023-02-01T08:04:37;5.43;;;3.50;;
19507;SDS011;40157;42.566;27.526;2023-02-01T08:06:37;7.67;;;3.57;;
19507;SDS011;40157;42.566;27.526;2023-02-01T08:08:38;4.03;;;2.77;;
19507;SDS011;40157;42.566;27.526;2023-02-01T08:10:39;5.30;;;3.23;;
19507;SDS011;40157;42.566;27.526;2023-02-01T08:12:39;5.93;;;3.23;;
19507;SDS011;40157;42.566;27.526;2023-02-01T08:14:41;6.33;;;2.87;;
19507;SDS011;40157;42.566;27.526;2023-02-01T08:16:41;6.57;;;3.33;;
19507;SDS011;40157;42.566;27.526;2023-02-01T08:18:42;11.30;;;3.20;;
19507;SDS011;40157;42.566;27.526;2023-02-01T08:20:43;6.10;;;3.13;;
19507;SDS011;40157;42.566;27.526;2023-02-01T08:22:45;5.93;;;3.47;;
19507;SDS011;40157;42.566;27.526;2023-02-01T08:24:48;7.07;;;3.27;;
19507;SDS011;40157;42.566;27.526;2023-02-01T08:26:49;6.93;;;3.27;;
19507;SDS011;40157;42.566;27.526;2023-02-01T08:28:51;8.57;;;3.53;;
19507;SDS011;40157;42.566;27.526;2023-02-01T08:30:53;9.17;;;3.60;;
19507;SDS011;40157;42.566;27.526;2023-02-01T08:32:54;9.93;;;3.63;;
19507;SDS011;40157;42.566;27.526;2023-02-01T08:34:54;6.00;;;3.50;;
19507;SDS011;40157;42.566;27.526;2023-02-01T08:36:55;7.03;;;3.40;;
19507;SDS011;40157;42.566;27.526;2023-02-01T08:38:58;5.43;;;3.30;;
19507;SDS011;40157;42.566;27.526;2023-02-01T08:41:03;6.53;;;3.77;;
19507;SDS011;40157;42.566;27.526;2023-02-01T08:43:04;6.07;;;3.03;;
19507;SDS011;40157;42.566;27.526;2023-02-01T08:45:05;4.40;;;2.63;;
19507;SDS011;40157;42.566;27.526;2023-02-01T08:47:07;6.50;;;3.20;;
19507;SDS011;40157;42.566;27.526;2023-02-01T08:49:08;11.10;;;3.27;;
19507;SDS011;40157;42.566;27.526;2023-02-01T08:51:09;6.27;;;3.07;;
19507;SDS011;40157;42.566;27.526;2023-02-01T08:53:13;6.33;;;3.00;;
19507;SDS011;40157;42.566;27.526;2023-02-01T08:55:14;9.20;;;3.20;;
19507;SDS011;40157;42.566;27.526;2023-02-01T08:57:15;8.97;;;3.47;;
19507;SDS011;40157;42.566;27.526;2023-02-01T08:59:15;6.33;;;2.60;;
19507;SDS011;40157;42.566;27.526;2023-02-01T09:01:16;3.23;;;2.30;;
19507;SDS011;40157;42.566;27.526;2023-02-01T09:03:17;4.70;;;2.83;;
19507;SDS011;40157;42.566;27.526;2023-02-01T09:05:18;4.67;;;2.63;;
19507;SDS011;40157;42.566;27.526;2023-02-01T09:07:22;5.17;;;2.67;;
19507;SDS011;40157;42.566;27.526;2023-02-01T09:09:22;4.90;;;2.70;;
19507;SDS011;40157;42.566;27.526;2023-02-01T09:11:23;7.63;;;2.97;;
19507;SDS011;40157;42.566;27.526;2023-02-01T09:13:26;5.30;;;2.30;;
19507;SDS011;40157;42.566;27.526;2023-02-01T09:15:26;5.27;;;2.27;;
19507;SDS011;40157;42.566;27.526;2023-02-01T09:17:27;3.37;;;2.17;;
19507;SDS011;40157;42.566;27.526;2023-02-01T09:19:29;3.73;;;1.97;;
19507;SDS011;40157;42.566;27.526;2023-02-01T09:21:29;4.50;;;2.13;;
19507;SDS011;40157;42.566;27.526;2023-02-01T09:23:30;5.97;;;2.63;;
19507;SDS011;40157;42.566;27.526;2023-02-01T09:25:30;4.90;;;2.20;;
19507;SDS011;40157;42.566;27.526;2023-02-01T09:27:31;4.70;;;2.30;;
19507;SDS011;40157;42.566;27.526;2023-02-01T09:29:31;6.20;;;2.30;;
19507;SDS011;40157;42.566;27.526;2023-02-01T09:31:32;6.83;;;2.70;;
19507;SDS011;40157;42.566;27.526;2023-02-01T09:33:32;3.80;;;2.33;;
19507;SDS011;40157;42.566;27.526;2023-02-01T09:35:33;4.97;;;2.50;;
19507;SDS011;40157;42.566;27.526;2023-02-01T09:37:33;4.83;;;2.77;;
19507;SDS011;40157;42.566;27.526;2023-02-01T09:39:34;5.70;;;2.60;;
19507;SDS011;40157;42.566;27.526;2023-02-01T09:43:59;5.67;;;2.70;;
19507;SDS011;40157;42.566;27.526;2023-02-01T09:48:21;4.47;;;2.50;;
19507;SDS011;40157;42.566;27.526;2023-02-01T09:50:36;4.30;;;2.57;;
19507;SDS011;40157;42.566;27.526;2023-02-01T09:52:47;7.07;;;2.60;;
19507;SDS011;40157;42.566;27.526;2023-02-01T09:54:58;5.27;;;2.10;;
19507;SDS011;40157;42.566;27.526;2023-02-01T09:57:10;4.50;;;2.60;;
19507;SDS011;40157;42.566;27.526;2023-02-01T10:00:07;4.20;;;2.57;;
19507;SDS011;40157;42.566;27.526;2023-02-01T10:02:11;6.37;;;2.10;;
19507;SDS011;40157;42.566;27.526;2023-02-01T10:04:17;4.40;;;2.17;;
19507;SDS011;40157;42.566;27.526;2023-02-01T10:06:27;3.27;;;2.13;;
19507;SDS011;40157;42.566;27.526;2023-02-01T10:08:37;7.50;;;2.70;;
19507;SDS011;40157;42.566;27.526;2023-02-01T10:10:57;8.67;;;2.50;;
19507;SDS011;40157;42.566;27.526;2023-02-01T10:13:19;4.47;;;2.53;;
19507;SDS011;40157;42.566;27.526;2023-02-01T10:15:40;3.63;;;2.30;;
19507;SDS011;40157;42.566;27.526;2023-02-01T10:18:11;5.03;;;2.50;;
19507;SDS011;40157;42.566;27.526;2023-02-01T10:20:28;5.53;;;2.17;;
19507;SDS011;40157;42.566;27.526;2023-02-01T10:22:43;4.47;;;2.20;;
19507;SDS011;40157;42.566;27.526;2023-02-01T10:24:46;8.70;;;2.40;;
19507;SDS011;40157;42.566;27.526;2023-02-01T10:26:59;6.53;;;2.87;;
19507;SDS011;40157;42.566;27.526;2023-02-01T10:29:11;5.00;;;2.83;;
19507;SDS011;40157;42.566;27.526;2023-02-01T10:31:20;3.60;;;2.33;;
19507;SDS011;40157;42.566;27.526;2023-02-01T10:33:26;4.43;;;1.93;;
19507;SDS011;40157;42.566;27.526;2023-02-01T10:35:33;4.63;;;2.30;;
19507;SDS011;40157;42.566;27.526;2023-02-01T10:37:36;7.17;;;1.97;;
19507;SDS011;40157;42.566;27.526;2023-02-01T10:39:37;3.07;;;1.50;;
19507;SDS011;40157;42.566;27.526;2023-02-01T10:41:38;5.23;;;1.90;;
19507;SDS011;40157;42.566;27.526;2023-02-01T10:43:41;4.13;;;2.10;;
19507;SDS011;40157;42.566;27.526;2023-02-01T10:45:43;3.97;;;2.07;;
19507;SDS011;40157;42.566;27.526;2023-02-01T10:47:43;4.07;;;2.33;;
19507;SDS011;40157;42.566;27.526;2023-02-01T10:54:44;3.40;;;1.80;;
19507;SDS011;40157;42.566;27.526;2023-02-01T10:56:44;2.50;;;1.40;;
19507;SDS011;40157;42.566;27.526;2023-02-01T10:58:48;4.63;;;2.10;;
19507;SDS011;40157;42.566;27.526;2023-02-01T11:00:52;4.70;;;1.60;;
19507;SDS011;40157;42.566;27.526;2023-02-01T11:02:56;4.30;;;1.87;;
19507;SDS011;40157;42.566;27.526;2023-02-01T11:05:00;3.83;;;1.70;;
19507;SDS011;40157;42.566;27.526;2023-02-01T11:07:23;4.53;;;2.10;;
19507;SDS011;40157;42.566;27.526;2023-02-01T11:09:25;4.03;;;2.07;;
19507;SDS011;40157;42.566;27.526;2023-02-01T11:11:26;4.47;;;2.10;;
19507;SDS011;40157;42.566;27.526;2023-02-01T11:13:28;4.00;;;1.97;;
19507;SDS011;40157;42.566;27.526;2023-02-01T11:15:31;3.53;;;1.77;;
19507;SDS011;40157;42.566;27.526;2023-02-01T11:17:34;3.90;;;1.93;;
19507;SDS011;40157;42.566;27.526;2023-02-01T11:19:36;2.70;;;1.80;;
19507;SDS011;40157;42.566;27.526;2023-02-01T11:21:38;2.57;;;1.80;;
19507;SDS011;40157;42.566;27.526;2023-02-01T11:23:39;2.90;;;2.00;;
19507;SDS011;40157;42.566;27.526;2023-02-01T11:25:49;5.30;;;1.93;;
19507;SDS011;40157;42.566;27.526;2023-02-01T11:27:55;3.73;;;1.83;;
19507;SDS011;40157;42.566;27.526;2023-02-01T11:29:58;7.23;;;2.00;;
19507;SDS011;40157;42.566;27.526;2023-02-01T11:32:01;3.43;;;1.53;;
19507;SDS011;40157;42.566;27.526;2023-02-01T11:34:15;2.40;;;1.73;;
19507;SDS011;40157;42.566;27.526;2023-02-01T11:36:18;2.83;;;1.90;;
19507;SDS011;40157;42.566;27.526;2023-02-01T11:40:39;2.47;;;1.60;;
19507;SDS011;40157;42.566;27.526;2023-02-01T11:42:39;3.10;;;1.80;;
19507;SDS011;40157;42.566;27.526;2023-02-01T11:47:30;6.13;;;1.90;;
19507;SDS011;40157;42.566;27.526;2023-02-01T11:49:39;3.33;;;2.00;;
19507;SDS011;40157;42.566;27.526;2023-02-01T11:51:59;3.97;;;1.97;;
19507;SDS011;40157;42.566;27.526;2023-02-01T12:01:24;2.77;;;1.90;;
19507;SDS011;40157;42.566;27.526;2023-02-01T12:08:44;2.03;;;1.47;;
19507;SDS011;40157;42.566;27.526;2023-02-01T12:15:29;4.07;;;2.00;;
19507;SDS011;40157;42.566;27.526;2023-02-01T12:18:08;4.00;;;1.40;;
19507;SDS011;40157;42.566;27.526;2023-02-01T12:23:14;2.83;;;1.50;;
19507;SDS011;40157;42.566;27.526;2023-02-01T12:27:41;4.00;;;1.50;;
19507;SDS011;40157;42.566;27.526;2023-02-01T12:29:58;3.87;;;1.57;;
19507;SDS011;40157;42.566;27.526;2023-02-01T12:37:20;3.17;;;1.60;;
19507;SDS011;40157;42.566;27.526;2023-02-01T12:39:30;2.93;;;1.70;;
19507;SDS011;40157;42.566;27.526;2023-02-01T12:41:56;5.17;;;1.97;;
19507;SDS011;40157;42.566;27.526;2023-02-01T12:46:50;2.07;;;1.37;;
19507;SDS011;40157;42.566;27.526;2023-02-01T12:51:24;4.93;;;1.63;;
19507;SDS011;40157;42.566;27.526;2023-02-01T12:55:36;2.80;;;1.57;;
19507;SDS011;40157;42.566;27.526;2023-02-01T12:57:43;7.90;;;1.90;;
19507;SDS011;40157;42.566;27.526;2023-02-01T12:59:51;2.70;;;1.60;;
19507;SDS011;40157;42.566;27.526;2023-02-01T13:02:01;5.47;;;2.30;;
19507;SDS011;40157;42.566;27.526;2023-02-01T13:06:51;5.97;;;2.87;;
19507;SDS011;40157;42.566;27.526;2023-02-01T13:09:20;5.57;;;2.50;;
19507;SDS011;40157;42.566;27.526;2023-02-01T13:11:30;3.63;;;2.33;;
19507;SDS011;40157;42.566;27.526;2023-02-01T13:13:44;5.93;;;2.30;;
19507;SDS011;40157;42.566;27.526;2023-02-01T13:16:15;5.03;;;2.83;;
19507;SDS011;40157;42.566;27.526;2023-02-01T13:18:37;5.27;;;2.70;;
19507;SDS011;40157;42.566;27.526;2023-02-01T13:22:50;3.27;;;1.70;;
19507;SDS011;40157;42.566;27.526;2023-02-01T13:24:58;3.93;;;2.10;;
19507;SDS011;40157;42.566;27.526;2023-02-01T13:27:02;3.17;;;2.03;;
19507;SDS011;40157;42.566;27.526;2023-02-01T13:29:03;2.27;;;1.80;;
19507;SDS011;40157;42.566;27.526;2023-02-01T13:31:14;3.43;;;2.10;;
19507;SDS011;40157;42.566;27.526;2023-02-01T13:33:24;3.23;;;2.17;;
19507;SDS011;40157;42.566;27.526;2023-02-01T13:35:44;3.33;;;2.10;;